createdAt,value
2019-05-17T00:00:16.665Z,86.51
2019-05-17T00:01:16.626Z,86.10
2019-05-17T00:02:17.033Z,86.60
2019-05-17T00:03:16.888Z,86.60
2019-05-17T00:04:16.630Z,86.57
2019-05-17T00:05:14.693Z,86.60
2019-05-17T00:06:16.738Z,86.40
2019-05-17T00:07:16.697Z,86.40
2019-05-17T00:09:14.642Z,86.60
2019-05-17T00:10:17.034Z,86.51
2019-05-17T00:11:16.654Z,86.51
2019-05-17T00:12:16.629Z,86.91
2019-05-17T00:13:14.721Z,87.12
2019-05-17T00:14:16.633Z,87.42
2019-05-17T00:15:16.848Z,87.32
2019-05-17T00:16:14.559Z,87.22
2019-05-17T00:17:14.548Z,87.32
2019-05-17T00:18:16.958Z,87.22
2019-05-17T00:19:16.742Z,87.32
2019-05-17T00:20:17.054Z,87.63
2019-05-17T00:21:16.764Z,86.81
2019-05-17T00:22:16.533Z,86.81
2019-05-17T00:23:14.482Z,86.91
2019-05-17T00:24:14.469Z,86.60
2019-05-17T00:25:16.512Z,86.10
2019-05-17T00:26:16.419Z,86.19
2019-05-17T00:27:14.433Z,86.81
2019-05-17T00:28:16.371Z,86.60
2019-05-17T00:29:14.409Z,86.60
2019-05-17T00:30:14.398Z,86.71
2019-05-17T00:31:14.387Z,86.81
2019-05-17T00:32:14.379Z,86.51
2019-05-17T00:33:16.771Z,86.60
2019-05-17T00:34:16.587Z,86.60
2019-05-17T00:35:14.342Z,86.71
2019-05-17T00:36:14.335Z,86.60
2019-05-17T00:37:14.330Z,86.85
2019-05-17T00:38:16.738Z,86.81
2019-05-17T00:39:16.506Z,86.40
2019-05-17T00:40:16.391Z,86.24
2019-05-17T00:41:14.289Z,86.19
2019-05-17T00:42:14.262Z,86.34
2019-05-17T00:43:14.252Z,86.10
2019-05-17T00:44:16.593Z,86.51
2019-05-17T00:45:14.227Z,86.24
2019-05-17T00:46:14.221Z,86.95
2019-05-17T00:47:14.207Z,86.65
2019-05-17T00:48:14.195Z,86.65
2019-05-17T00:49:14.184Z,86.85
2019-05-17T00:50:16.771Z,86.65
2019-05-17T00:51:16.548Z,86.65
2019-05-17T00:52:16.529Z,86.54
2019-05-17T00:53:16.248Z,86.85
2019-05-17T00:54:14.126Z,87.36
2019-05-17T00:55:14.115Z,87.06
2019-05-17T00:56:14.103Z,86.95
2019-05-17T00:57:16.459Z,87.36
2019-05-17T00:58:14.081Z,87.46
2019-05-17T00:59:14.072Z,87.71
2019-05-17T01:00:16.868Z,87.30
2019-05-17T01:01:16.402Z,87.30
2019-05-17T01:02:16.164Z,88.22
2019-05-17T01:03:16.144Z,88.33
2019-05-17T01:04:14.016Z,87.92
2019-05-17T01:05:14.016Z,88.01
2019-05-17T01:06:14.004Z,88.22
2019-05-17T01:07:13.981Z,87.71
2019-05-17T01:08:13.973Z,87.92
2019-05-17T01:10:13.947Z,87.81
2019-05-17T01:15:13.895Z,88.22
2019-05-17T01:22:13.816Z,87.71
2019-05-17T01:23:13.804Z,87.71
2019-05-17T02:30:14.419Z,86.52
2019-05-17T02:31:13.485Z,86.62
2019-05-17T02:32:13.065Z,86.83
2019-05-17T02:33:13.046Z,86.62
2019-05-17T02:34:14.090Z,86.62
2019-05-17T02:35:14.327Z,86.21
2019-05-17T02:36:14.179Z,86.62
2019-05-17T02:37:13.713Z,87.65
2019-05-17T02:38:13.440Z,87.24
2019-05-17T02:39:13.305Z,87.34
2019-05-17T02:40:14.510Z,87.34
2019-05-17T02:41:14.113Z,87.38
2019-05-17T02:42:13.829Z,87.24
2019-05-17T02:43:13.376Z,87.18
2019-05-17T02:44:13.285Z,87.07
2019-05-17T02:45:13.401Z,87.18
2019-05-17T02:46:13.793Z,87.59
2019-05-17T02:47:13.404Z,87.79
2019-05-17T02:48:13.528Z,87.48
2019-05-17T02:49:13.685Z,87.48
2019-05-17T02:50:13.345Z,87.69
2019-05-17T02:51:13.375Z,87.69
2019-05-17T02:52:12.842Z,86.91
2019-05-17T02:53:13.312Z,87.21
2019-05-17T02:54:13.410Z,87.32
2019-05-17T02:55:13.219Z,87.63
2019-05-17T02:56:13.631Z,87.53
2019-05-17T02:57:14.210Z,87.63
2019-05-17T02:58:12.988Z,87.48
2019-05-17T02:59:13.645Z,87.12
2019-05-17T03:00:13.593Z,87.07
2019-05-17T03:01:12.936Z,86.77
2019-05-17T03:02:12.903Z,86.56
2019-05-17T03:03:13.484Z,86.87
2019-05-17T03:04:13.137Z,87.01
2019-05-17T03:05:13.131Z,86.50
2019-05-17T03:06:13.579Z,86.71
2019-05-17T03:07:13.503Z,86.50
2019-05-17T03:08:12.665Z,86.71
2019-05-17T03:09:12.663Z,86.81
2019-05-17T03:10:22.001Z,86.81
2019-05-17T03:11:37.112Z,86.71
2019-05-17T03:12:37.125Z,86.71
2019-05-17T03:13:37.092Z,86.60
2019-05-17T03:14:37.077Z,86.74
2019-05-17T03:15:37.071Z,86.71
2019-05-17T03:16:37.058Z,86.44
2019-05-17T03:17:37.046Z,86.60
2019-05-17T03:18:37.039Z,86.30
2019-05-17T03:19:37.031Z,86.91
2019-05-17T03:20:37.013Z,87.01
2019-05-17T03:21:37.000Z,86.30
2019-05-17T03:22:36.999Z,86.60
2019-05-17T03:23:36.980Z,86.09
2019-05-17T03:24:36.968Z,86.19
2019-05-17T03:25:36.958Z,86.26
2019-05-17T03:26:36.945Z,86.36
2019-05-17T03:27:36.931Z,86.15
2019-05-17T03:28:36.924Z,85.95
2019-05-17T03:29:36.916Z,86.05
2019-05-17T03:30:37.578Z,85.54
2019-05-17T03:31:44.605Z,85.64
2019-05-17T03:33:07.473Z,85.95
2019-05-17T03:34:27.197Z,85.54
2019-05-17T03:35:27.033Z,85.33
2019-05-17T03:36:26.685Z,85.13
2019-05-17T03:37:31.906Z,85.64
2019-05-17T03:38:53.221Z,85.33
2019-05-17T03:39:53.416Z,85.74
2019-05-17T03:41:12.375Z,85.23
2019-05-17T03:41:53.489Z,85.54
2019-05-17T03:42:53.555Z,85.44
2019-05-17T03:43:53.361Z,85.85
2019-05-17T03:44:52.890Z,85.64
2019-05-17T03:45:53.115Z,85.54
2019-05-17T03:46:52.934Z,85.74
2019-05-17T03:47:52.969Z,85.40
2019-05-17T03:48:53.252Z,84.88
2019-05-17T03:49:52.883Z,85.19
2019-05-17T03:50:52.979Z,85.50
2019-05-17T03:51:52.963Z,84.68
2019-05-17T03:52:53.296Z,84.88
2019-05-17T03:53:53.040Z,85.09
2019-05-17T03:54:53.007Z,84.79
2019-05-17T03:55:53.729Z,85.60
2019-05-17T03:56:53.019Z,84.88
2019-05-17T03:57:53.144Z,85.09
2019-05-17T03:58:52.804Z,84.99
2019-05-17T03:59:52.486Z,84.47
2019-05-17T04:00:53.117Z,84.79
2019-05-17T04:01:52.759Z,84.64
2019-05-17T04:02:53.355Z,84.54
2019-05-17T04:03:52.732Z,85.05
2019-05-17T04:04:52.672Z,84.95
2019-05-17T04:05:52.678Z,84.44
2019-05-17T04:06:52.585Z,84.13
2019-05-17T04:07:53.350Z,84.24
2019-05-17T04:08:52.641Z,83.83
2019-05-17T04:09:52.979Z,83.99
2019-05-17T04:10:52.727Z,83.99
2019-05-17T04:11:53.246Z,84.24
2019-05-17T04:12:52.738Z,84.44
2019-05-17T04:13:49.868Z,84.60
2019-05-17T04:14:53.071Z,84.54
2019-05-17T04:15:53.009Z,84.24
2019-05-17T04:16:49.842Z,84.03
2019-05-17T04:17:52.713Z,84.13
2019-05-17T04:18:49.828Z,84.95
2019-05-17T04:19:52.994Z,84.54
2019-05-17T04:20:52.663Z,84.95
2019-05-17T04:21:49.787Z,84.03
2019-05-17T04:22:52.540Z,84.09
2019-05-17T04:23:49.759Z,84.09
2019-05-17T04:24:52.330Z,83.68
2019-05-17T04:25:52.397Z,83.68
2019-05-17T04:26:52.328Z,83.07
2019-05-17T04:27:49.730Z,83.13
2019-05-17T04:28:52.958Z,83.07
2019-05-17T04:29:53.014Z,83.03
2019-05-17T04:30:52.549Z,83.03
2019-05-17T04:31:49.671Z,82.93
2019-05-17T04:32:52.425Z,82.48
2019-05-17T04:33:49.670Z,82.83
2019-05-17T04:34:52.389Z,82.17
2019-05-17T04:35:49.631Z,82.69
2019-05-17T04:36:52.102Z,82.08
2019-05-17T04:37:52.795Z,81.73
2019-05-17T04:38:52.402Z,81.56
2019-05-17T04:39:52.297Z,81.32
2019-05-17T04:40:49.574Z,81.32
2019-05-17T04:41:54.240Z,80.46
2019-05-17T04:42:52.431Z,80.46
2019-05-17T04:43:52.920Z,80.46
2019-05-17T04:44:52.440Z,80.78
2019-05-17T04:45:49.523Z,80.78
2019-05-17T04:46:49.509Z,80.67
2019-05-17T04:47:52.696Z,80.23
2019-05-17T04:48:49.487Z,79.92
2019-05-17T04:49:53.316Z,79.21
2019-05-17T04:50:49.464Z,79.37
2019-05-17T04:51:52.373Z,78.56
2019-05-17T04:52:49.449Z,79.23
2019-05-17T04:53:52.690Z,79.03
2019-05-17T04:54:49.420Z,77.67
2019-05-17T04:55:49.416Z,77.56
2019-05-17T04:56:49.398Z,76.95
2019-05-17T04:57:52.646Z,77.56
2019-05-17T04:58:50.309Z,77.43
2019-05-17T04:59:52.188Z,75.76
2019-05-17T05:00:49.357Z,75.02
2019-05-17T05:01:49.343Z,75.09
2019-05-17T05:02:52.518Z,73.49
2019-05-17T05:03:52.300Z,72.85
2019-05-17T05:04:49.316Z,72.34
2019-05-17T05:05:49.299Z,72.44
2019-05-17T05:06:52.267Z,71.09
2019-05-17T05:07:49.276Z,71.19
2019-05-17T05:08:49.261Z,71.16
2019-05-17T05:09:52.174Z,70.01
2019-05-17T05:10:49.239Z,69.67
2019-05-17T05:11:59.571Z,68.73
2019-05-17T05:13:13.706Z,67.45
2019-05-17T05:14:13.686Z,66.91
2019-05-17T05:15:13.684Z,65.27
2019-05-17T05:16:13.748Z,64.96
2019-05-17T05:17:13.658Z,64.12
2019-05-17T05:18:13.951Z,64.33
2019-05-17T05:19:13.642Z,64.16
2019-05-17T05:20:13.811Z,62.45
2019-05-17T05:21:13.618Z,61.81
2019-05-17T05:22:17.386Z,62.09
2019-05-17T05:23:13.731Z,60.77
2019-05-17T05:24:13.580Z,60.75
2019-05-17T05:25:13.565Z,60.44
2019-05-17T05:26:13.556Z,60.11
2019-05-17T05:27:13.543Z,60.08
2019-05-17T05:28:13.540Z,58.95
2019-05-17T05:29:13.520Z,58.75
2019-05-17T05:30:13.510Z,58.22
2019-05-17T05:31:13.497Z,57.69
2019-05-17T05:32:13.489Z,57.09
2019-05-17T05:33:13.478Z,56.68
2019-05-17T05:34:13.465Z,55.95
2019-05-17T05:35:13.455Z,56.15
2019-05-17T05:36:13.444Z,55.82
2019-05-17T05:37:13.432Z,55.43
2019-05-17T05:38:13.487Z,55.32
2019-05-17T05:39:13.413Z,55.00
2019-05-17T05:40:13.398Z,55.07
2019-05-17T05:41:13.385Z,54.27
2019-05-17T05:42:14.093Z,53.64
2019-05-17T05:43:13.363Z,53.61
2019-05-17T05:44:13.353Z,52.61
2019-05-17T05:45:13.348Z,52.59
2019-05-17T05:46:13.332Z,52.36
2019-05-17T05:47:13.325Z,52.27
2019-05-17T05:48:13.315Z,52.36
2019-05-17T05:49:13.295Z,51.24
2019-05-17T05:50:13.284Z,51.01
2019-05-17T05:51:13.832Z,50.39
2019-05-17T05:52:13.269Z,50.49
2019-05-17T05:53:13.405Z,50.19
2019-05-17T05:54:13.243Z,49.96
2019-05-17T05:55:13.228Z,49.87
2019-05-17T05:56:13.540Z,49.04
2019-05-17T05:57:13.211Z,48.82
2019-05-17T05:58:13.205Z,48.32
2019-05-17T05:59:13.211Z,47.90
2019-05-17T06:00:13.244Z,47.50
2019-05-17T06:01:13.163Z,47.90
2019-05-17T06:02:13.156Z,47.08
2019-05-17T06:03:13.140Z,46.48
2019-05-17T06:04:13.129Z,46.67
2019-05-17T06:05:17.079Z,46.06
2019-05-17T06:06:13.107Z,46.06
2019-05-17T06:07:13.096Z,46.63
2019-05-17T06:08:13.084Z,45.94
2019-05-17T06:09:13.089Z,45.12
2019-05-17T06:10:13.357Z,45.00
2019-05-17T06:11:13.052Z,44.79
2019-05-17T06:12:23.430Z,45.00
2019-05-17T06:13:37.511Z,44.87
2019-05-17T06:14:37.494Z,43.26
2019-05-17T06:15:37.483Z,43.56
2019-05-17T06:16:37.475Z,42.74
2019-05-17T06:17:37.459Z,42.74
2019-05-17T06:18:37.449Z,42.84
2019-05-17T06:19:37.454Z,42.74
2019-05-17T06:20:37.432Z,42.84
2019-05-17T06:21:37.427Z,42.92
2019-05-17T06:22:37.403Z,42.40
2019-05-17T06:23:37.393Z,41.59
2019-05-17T06:24:37.388Z,42.08
2019-05-17T06:25:37.372Z,41.27
2019-05-17T06:26:37.363Z,40.97
2019-05-17T06:27:37.352Z,40.75
2019-05-17T06:28:37.341Z,40.46
2019-05-17T06:29:37.332Z,38.95
2019-05-17T06:30:37.316Z,39.35
2019-05-17T06:31:37.314Z,39.92
2019-05-17T06:32:37.296Z,39.11
2019-05-17T06:33:37.287Z,38.22
2019-05-17T06:34:37.277Z,37.81
2019-05-17T06:35:37.263Z,37.51
2019-05-17T06:36:37.254Z,37.90
2019-05-17T06:37:37.240Z,38.01
2019-05-17T06:38:37.229Z,38.30
2019-05-17T06:39:37.219Z,36.90
2019-05-17T06:40:37.211Z,37.51
2019-05-17T06:41:37.201Z,37.20
2019-05-17T06:42:41.121Z,37.20
2019-05-17T06:43:38.592Z,36.98
2019-05-17T06:44:37.195Z,36.80
2019-05-17T06:45:37.154Z,36.78
2019-05-17T06:46:37.142Z,36.38
2019-05-17T06:47:37.131Z,38.07
2019-05-17T06:48:37.135Z,36.76
2019-05-17T06:49:37.116Z,36.86
2019-05-17T06:50:37.099Z,36.37
2019-05-17T06:51:37.089Z,35.36
2019-05-17T06:52:37.087Z,34.55
2019-05-17T06:53:37.089Z,34.06
2019-05-17T06:54:37.094Z,34.16
2019-05-17T06:55:37.043Z,33.95
2019-05-17T06:56:37.041Z,34.74
2019-05-17T06:57:37.048Z,34.64
2019-05-17T06:58:37.047Z,34.62
2019-05-17T06:59:37.049Z,34.11
2019-05-17T07:00:36.993Z,34.10
2019-05-17T07:01:36.976Z,33.90
2019-05-17T07:02:36.964Z,33.98
2019-05-17T07:03:36.955Z,34.80
2019-05-17T07:04:39.395Z,34.50
2019-05-17T07:05:36.936Z,34.11
2019-05-17T07:06:36.925Z,34.42
2019-05-17T07:07:36.918Z,34.22
2019-05-17T07:08:36.897Z,34.64
2019-05-17T07:09:36.886Z,34.93
2019-05-17T07:10:36.875Z,34.64
2019-05-17T07:11:36.863Z,34.24
2019-05-17T07:12:36.853Z,35.41
2019-05-17T07:13:36.852Z,34.92
2019-05-17T07:14:36.833Z,35.41
2019-05-17T07:15:46.892Z,35.31
2019-05-17T07:17:01.287Z,35.80
2019-05-17T07:18:01.280Z,35.79
2019-05-17T07:19:01.264Z,32.91
2019-05-17T07:20:01.253Z,32.93
2019-05-17T07:21:03.457Z,34.90
2019-05-17T07:22:01.235Z,34.60
2019-05-17T07:23:01.224Z,34.52
2019-05-17T07:24:01.215Z,34.72
2019-05-17T07:25:01.197Z,34.52
2019-05-17T07:26:01.189Z,34.42
2019-05-17T07:27:01.177Z,34.52
2019-05-17T07:28:01.167Z,34.22
2019-05-17T07:29:01.156Z,34.52
2019-05-17T07:30:01.142Z,34.14
2019-05-17T07:31:01.131Z,35.43
2019-05-17T07:32:01.119Z,34.54
2019-05-17T07:33:01.118Z,34.64
2019-05-17T07:34:01.096Z,34.72
2019-05-17T07:35:01.091Z,34.71
2019-05-17T07:36:01.074Z,34.80
2019-05-17T07:37:01.068Z,34.80
2019-05-17T07:38:01.054Z,34.10
2019-05-17T07:39:01.040Z,33.88
2019-05-17T07:40:05.100Z,33.22
2019-05-17T07:41:01.024Z,34.88
2019-05-17T07:42:01.010Z,36.42
2019-05-17T07:43:10.478Z,36.23
2019-05-17T07:44:25.466Z,36.21
2019-05-17T07:45:25.463Z,35.58
2019-05-17T07:46:25.449Z,34.87
2019-05-17T07:47:25.439Z,34.54
2019-05-17T07:48:25.426Z,34.82
2019-05-17T07:49:25.421Z,34.11
2019-05-17T07:50:25.401Z,34.10
2019-05-17T07:51:25.391Z,33.09
2019-05-17T07:52:25.378Z,32.69
2019-05-17T07:53:25.367Z,32.47
2019-05-17T07:54:25.375Z,32.65
2019-05-17T07:55:25.347Z,31.75
2019-05-17T07:56:25.347Z,31.65
2019-05-17T07:57:25.328Z,30.87
2019-05-17T07:58:25.320Z,31.26
2019-05-17T07:59:25.309Z,31.31
2019-05-17T08:00:25.296Z,33.34
2019-05-17T08:01:25.287Z,34.16
2019-05-17T08:02:25.282Z,35.04
2019-05-17T08:03:25.283Z,34.03
2019-05-17T08:04:25.253Z,33.12
2019-05-17T08:05:25.249Z,32.89
2019-05-17T08:06:25.233Z,32.88
2019-05-17T08:07:25.219Z,31.78
2019-05-17T08:08:25.212Z,31.85
2019-05-17T08:09:25.199Z,31.75
2019-05-17T08:10:25.185Z,31.95
2019-05-17T08:11:25.176Z,32.26
2019-05-17T08:12:25.163Z,32.69
2019-05-17T08:13:30.266Z,32.67
2019-05-17T08:14:50.308Z,32.78
2019-05-17T08:15:50.175Z,34.95
2019-05-17T08:16:50.194Z,34.95
2019-05-17T08:17:50.212Z,33.83
2019-05-17T08:18:49.804Z,32.93
2019-05-17T08:19:49.889Z,32.51
2019-05-17T08:20:50.154Z,32.50
2019-05-17T08:21:50.182Z,33.06
2019-05-17T08:22:50.230Z,31.68
2019-05-17T08:23:50.544Z,31.97
2019-05-17T08:24:49.525Z,31.86
2019-05-17T08:25:53.726Z,32.34
2019-05-17T08:26:50.519Z,32.24
2019-05-17T08:27:50.381Z,30.95
2019-05-17T08:28:49.894Z,30.74
2019-05-17T08:29:49.908Z,30.82
2019-05-17T08:30:50.160Z,30.52
2019-05-17T08:31:49.758Z,30.43
2019-05-17T08:32:50.492Z,30.82
2019-05-17T08:33:49.827Z,30.72
2019-05-17T08:34:51.688Z,30.22
2019-05-17T08:35:49.570Z,30.20
2019-05-17T08:36:49.888Z,30.19
2019-05-17T08:37:49.926Z,30.37
2019-05-17T08:38:50.137Z,29.77
2019-05-17T08:39:50.523Z,30.47
2019-05-17T08:40:50.923Z,29.87
2019-05-17T08:41:49.792Z,30.35
2019-05-17T08:42:49.899Z,28.77
2019-05-17T08:43:51.438Z,29.16
2019-05-17T08:44:49.804Z,28.58
2019-05-17T08:45:50.184Z,28.58
2019-05-17T08:46:50.107Z,28.77
2019-05-17T08:47:49.995Z,28.59
2019-05-17T08:48:49.540Z,28.38
2019-05-17T08:49:49.813Z,29.07
2019-05-17T08:50:49.557Z,28.68
2019-05-17T08:51:49.997Z,28.68
2019-05-17T08:52:49.598Z,28.37
2019-05-17T08:53:49.370Z,28.27
2019-05-17T08:54:49.694Z,28.57
2019-05-17T08:55:50.099Z,28.55
2019-05-17T08:56:50.413Z,28.35
2019-05-17T08:57:50.082Z,28.25
2019-05-17T08:58:49.793Z,28.55
2019-05-17T08:59:49.757Z,27.77
2019-05-17T09:00:50.532Z,27.95
2019-05-17T09:01:50.574Z,27.85
2019-05-17T09:02:50.002Z,28.14
2019-05-17T09:03:50.592Z,28.33
2019-05-17T09:04:49.739Z,28.33
2019-05-17T09:05:52.531Z,28.33
2019-05-17T09:06:50.488Z,27.95
2019-05-17T09:07:49.376Z,28.25
2019-05-17T09:08:50.002Z,29.40
2019-05-17T09:09:50.112Z,30.56
2019-05-17T09:10:50.448Z,30.46
2019-05-17T09:11:50.110Z,30.45
2019-05-17T09:12:50.246Z,30.13
2019-05-17T09:13:58.008Z,29.52
2019-05-17T09:15:13.456Z,29.21
2019-05-17T09:16:13.449Z,30.59
2019-05-17T09:17:13.438Z,30.43
2019-05-17T09:18:13.421Z,30.64
2019-05-17T09:19:13.421Z,30.88
2019-05-17T09:20:13.402Z,31.70
2019-05-17T09:21:13.389Z,32.78
2019-05-17T09:22:13.385Z,31.67
2019-05-17T09:23:13.385Z,30.93
2019-05-17T09:24:13.358Z,30.22
2019-05-17T09:25:18.853Z,30.48
2019-05-17T09:26:14.353Z,29.98
2019-05-17T09:27:13.332Z,28.28
2019-05-17T09:28:13.313Z,28.68
2019-05-17T09:29:13.304Z,29.55
2019-05-17T09:30:13.319Z,29.80
2019-05-17T09:31:13.283Z,30.68
2019-05-17T09:32:13.290Z,30.58
2019-05-17T09:33:13.263Z,30.41
2019-05-17T09:34:13.253Z,30.41
2019-05-17T09:35:13.243Z,30.65
2019-05-17T09:36:13.231Z,32.03
2019-05-17T09:37:16.835Z,31.76
2019-05-17T09:38:13.209Z,31.88
2019-05-17T09:39:13.197Z,31.83
2019-05-17T09:40:13.186Z,30.81
2019-05-17T09:41:13.180Z,30.19
2019-05-17T09:42:13.164Z,29.55
2019-05-17T09:43:15.038Z,28.37
2019-05-17T09:44:16.358Z,28.57
2019-05-17T09:45:13.132Z,28.25
2019-05-17T09:46:13.120Z,28.06
2019-05-17T09:47:13.112Z,28.34
2019-05-17T09:48:13.113Z,28.77
2019-05-17T09:49:13.098Z,30.35
2019-05-17T09:50:13.077Z,29.98
2019-05-17T09:51:13.067Z,30.06
2019-05-17T09:52:13.054Z,29.85
2019-05-17T09:53:13.051Z,28.66
2019-05-17T09:54:13.037Z,28.14
2019-05-17T09:55:13.023Z,29.84
2019-05-17T09:56:13.014Z,30.26
2019-05-17T09:57:13.006Z,29.49
2019-05-17T09:58:13.000Z,30.01
2019-05-17T09:59:12.988Z,30.72
2019-05-17T10:00:12.969Z,30.56
2019-05-17T10:01:12.959Z,31.85
2019-05-17T10:02:12.948Z,31.57
2019-05-17T10:03:12.946Z,31.88
2019-05-17T10:04:13.867Z,31.56
2019-05-17T10:05:12.917Z,30.34
2019-05-17T10:06:12.922Z,30.02
2019-05-17T10:07:12.899Z,30.38
2019-05-17T10:08:12.887Z,29.19
2019-05-17T10:09:12.873Z,29.21
2019-05-17T10:10:12.868Z,29.90
2019-05-17T10:11:12.986Z,29.22
2019-05-17T10:12:12.841Z,29.10
2019-05-17T10:13:12.840Z,29.39
2019-05-17T10:14:24.680Z,29.21
2019-05-17T10:15:37.282Z,30.65
2019-05-17T10:16:37.273Z,30.62
2019-05-17T10:17:37.261Z,30.12
2019-05-17T10:18:37.258Z,30.02
2019-05-17T10:19:37.241Z,30.13
2019-05-17T10:20:37.233Z,30.52
2019-05-17T10:21:39.427Z,30.49
2019-05-17T10:22:39.868Z,29.73
2019-05-17T10:23:37.197Z,30.10
2019-05-17T10:24:39.664Z,29.77
2019-05-17T10:25:37.177Z,28.76
2019-05-17T10:26:37.165Z,28.66
2019-05-17T10:27:37.159Z,28.59
2019-05-17T10:28:37.144Z,30.37
2019-05-17T10:29:39.354Z,29.46
2019-05-17T10:30:39.548Z,28.16
2019-05-17T10:31:37.112Z,27.75
2019-05-17T10:32:40.437Z,28.03
2019-05-17T10:33:37.091Z,27.34
2019-05-17T10:34:37.080Z,26.72
2019-05-17T10:35:37.077Z,26.72
2019-05-17T10:36:37.066Z,27.44
2019-05-17T10:37:40.353Z,27.85
2019-05-17T10:38:39.444Z,28.27
2019-05-17T10:39:39.386Z,28.19
2019-05-17T10:40:37.021Z,29.92
2019-05-17T10:41:37.016Z,29.56
2019-05-17T10:42:39.356Z,30.26
2019-05-17T10:43:39.189Z,31.49
2019-05-17T10:44:46.313Z,31.91
2019-05-17T10:46:01.439Z,31.79
2019-05-17T10:47:01.428Z,30.46
2019-05-17T10:48:01.421Z,30.75
2019-05-17T10:49:01.410Z,31.56
2019-05-17T10:50:01.398Z,31.28
2019-05-17T10:51:01.394Z,31.57
2019-05-17T10:52:01.375Z,30.77
2019-05-17T10:53:01.376Z,31.28
2019-05-17T10:54:04.034Z,31.06
2019-05-17T10:55:01.345Z,30.46
2019-05-17T10:56:01.335Z,30.49
2019-05-17T10:57:01.324Z,31.59
2019-05-17T10:58:01.315Z,31.60
2019-05-17T10:59:01.328Z,32.31
2019-05-17T11:00:01.294Z,32.62
2019-05-17T11:01:01.291Z,32.94
2019-05-17T11:02:01.271Z,33.25
2019-05-17T11:03:01.268Z,34.24
2019-05-17T11:04:01.253Z,34.26
2019-05-17T11:05:01.244Z,34.49
2019-05-17T11:06:01.229Z,36.12
2019-05-17T11:07:01.219Z,36.85
2019-05-17T11:08:01.214Z,37.17
2019-05-17T11:09:01.202Z,36.67
2019-05-17T11:10:01.194Z,36.97
2019-05-17T11:11:01.177Z,36.77
2019-05-17T11:12:01.172Z,36.85
2019-05-17T11:13:01.218Z,36.46
2019-05-17T11:14:01.151Z,36.63
2019-05-17T11:15:10.809Z,36.24
2019-05-17T11:16:02.147Z,36.54
2019-05-17T11:17:01.120Z,36.44
2019-05-17T11:18:01.107Z,36.63
2019-05-17T11:19:01.089Z,36.84
2019-05-17T11:20:01.087Z,37.03
2019-05-17T11:21:01.069Z,36.95
2019-05-17T11:22:01.061Z,36.85
2019-05-17T11:23:01.054Z,36.87
2019-05-17T11:24:01.257Z,37.54
2019-05-17T11:25:03.068Z,36.36
2019-05-17T11:26:01.021Z,36.65
2019-05-17T11:27:01.010Z,37.25
2019-05-17T11:28:01.005Z,37.15
2019-05-17T11:29:00.989Z,36.74
2019-05-17T11:30:00.977Z,37.05
2019-05-17T11:31:00.964Z,37.94
2019-05-17T11:32:00.955Z,37.84
2019-05-17T11:33:00.946Z,37.56
2019-05-17T11:34:00.930Z,36.95
2019-05-17T11:35:00.917Z,36.37
2019-05-17T11:36:00.908Z,37.07
2019-05-17T11:37:00.900Z,36.97
2019-05-17T11:38:00.885Z,38.06
2019-05-17T11:39:00.881Z,37.78
2019-05-17T11:40:00.868Z,37.78
2019-05-17T11:41:00.859Z,37.46
2019-05-17T11:42:00.845Z,37.84
2019-05-17T11:43:00.829Z,36.87
2019-05-17T11:44:00.827Z,36.26
2019-05-17T11:45:00.813Z,36.26
2019-05-17T11:46:00.797Z,36.65
2019-05-17T11:47:00.801Z,36.67
2019-05-17T11:48:00.784Z,36.57
2019-05-17T11:49:00.768Z,36.97
2019-05-17T11:50:00.957Z,37.07
2019-05-17T11:51:00.742Z,36.95
2019-05-17T11:52:00.746Z,37.45
2019-05-17T11:53:00.743Z,36.85
2019-05-17T11:54:00.713Z,36.85
2019-05-17T11:55:00.705Z,36.93
2019-05-17T11:56:00.698Z,36.23
2019-05-17T11:57:00.678Z,36.38
2019-05-17T11:58:00.676Z,35.89
2019-05-17T11:59:00.679Z,35.58
2019-05-17T12:00:00.655Z,35.16
2019-05-17T12:01:00.636Z,35.38
2019-05-17T12:02:00.625Z,35.86
2019-05-17T12:03:00.617Z,36.37
2019-05-17T12:04:00.604Z,35.87
2019-05-17T12:05:00.594Z,36.17
2019-05-17T12:06:00.586Z,36.37
2019-05-17T12:07:00.573Z,35.08
2019-05-17T12:08:00.562Z,35.49
2019-05-17T12:09:00.555Z,36.19
2019-05-17T12:10:00.539Z,35.40
2019-05-17T12:11:00.711Z,35.60
2019-05-17T12:12:00.524Z,36.10
2019-05-17T12:13:00.512Z,35.72
2019-05-17T12:14:00.496Z,36.52
2019-05-17T12:15:00.493Z,36.32
2019-05-17T12:16:00.475Z,36.02
2019-05-17T12:17:00.463Z,36.42
2019-05-17T12:18:00.658Z,36.52
2019-05-17T12:19:00.443Z,35.51
2019-05-17T12:20:00.430Z,36.42
2019-05-17T12:21:00.473Z,35.51
2019-05-17T12:22:00.420Z,35.91
2019-05-17T12:23:00.400Z,35.51
2019-05-17T12:24:00.395Z,35.40
2019-05-17T12:25:00.385Z,35.89
2019-05-17T12:26:00.379Z,35.10
2019-05-17T12:27:00.357Z,34.21
2019-05-17T12:28:00.351Z,34.99
2019-05-17T12:29:00.335Z,34.59
2019-05-17T12:30:00.324Z,34.88
2019-05-17T12:31:00.319Z,34.69
2019-05-17T12:32:00.305Z,34.88
2019-05-17T12:33:00.298Z,34.47
2019-05-17T12:34:00.281Z,34.57
2019-05-17T12:35:00.344Z,34.57
2019-05-17T12:36:00.259Z,34.17
2019-05-17T12:37:00.256Z,34.47
2019-05-17T12:38:00.246Z,34.38
2019-05-17T12:39:00.233Z,34.77
2019-05-17T12:40:00.217Z,34.55
2019-05-17T12:41:00.218Z,34.55
2019-05-17T12:42:00.333Z,34.77
2019-05-17T12:43:00.188Z,34.88
2019-05-17T12:44:00.176Z,34.88
2019-05-17T12:45:00.169Z,34.71
2019-05-17T12:46:01.631Z,35.51
2019-05-17T12:47:00.150Z,35.04
2019-05-17T12:48:00.136Z,35.53
2019-05-17T12:49:01.981Z,35.94
2019-05-17T12:50:00.112Z,35.94
2019-05-17T12:51:00.100Z,35.36
2019-05-17T12:52:00.091Z,36.26
2019-05-17T12:53:00.084Z,36.97
2019-05-17T12:54:00.077Z,36.48
2019-05-17T12:55:00.057Z,37.58
2019-05-17T12:56:00.052Z,37.46
2019-05-17T12:57:00.036Z,37.48
2019-05-17T12:58:00.029Z,37.39
2019-05-17T12:59:00.013Z,36.49
2019-05-17T13:00:00.012Z,37.29
2019-05-17T13:00:59.999Z,37.01
2019-05-17T13:01:59.984Z,37.52
2019-05-17T13:02:59.981Z,38.01
2019-05-17T13:03:59.967Z,38.61
2019-05-17T13:04:59.953Z,38.71
2019-05-17T13:05:59.949Z,38.83
2019-05-17T13:06:59.928Z,38.65
2019-05-17T13:07:59.926Z,38.45
2019-05-17T13:08:59.921Z,38.87
2019-05-17T13:09:59.894Z,39.66
2019-05-17T13:10:59.889Z,39.86
2019-05-17T13:11:59.875Z,39.68
2019-05-17T13:12:59.865Z,39.56
2019-05-17T13:13:59.857Z,39.34
2019-05-17T13:14:59.846Z,39.74
2019-05-17T13:16:16.450Z,39.12
2019-05-17T13:17:00.847Z,39.01
2019-05-17T13:17:59.810Z,39.20
2019-05-17T13:18:59.798Z,38.79
2019-05-17T13:19:59.791Z,38.79
2019-05-17T13:20:59.791Z,38.00
2019-05-17T13:21:59.773Z,38.00
2019-05-17T13:22:59.761Z,38.61
2019-05-17T13:23:59.745Z,38.63
2019-05-17T13:24:59.736Z,39.31
2019-05-17T13:25:59.723Z,38.93
2019-05-17T13:26:59.716Z,38.93
2019-05-17T13:27:59.714Z,39.11
2019-05-17T13:28:59.693Z,38.81
2019-05-17T13:29:59.683Z,39.20
2019-05-17T13:30:59.672Z,39.12
2019-05-17T13:31:59.660Z,38.63
2019-05-17T13:32:59.652Z,39.14
2019-05-17T13:33:59.639Z,39.25
2019-05-17T13:34:59.627Z,39.25
2019-05-17T13:36:00.856Z,39.14
2019-05-17T13:36:59.614Z,39.44
2019-05-17T13:37:59.605Z,38.73
2019-05-17T13:38:59.586Z,38.95
2019-05-17T13:39:59.578Z,38.43
2019-05-17T13:40:59.568Z,38.63
2019-05-17T13:41:59.552Z,38.84
2019-05-17T13:42:59.543Z,38.73
2019-05-17T13:43:59.537Z,39.25
2019-05-17T13:44:59.522Z,38.73
2019-05-17T13:45:59.520Z,38.83
2019-05-17T13:46:59.504Z,37.54
2019-05-17T13:47:59.490Z,37.64
2019-05-17T13:48:59.482Z,38.03
2019-05-17T13:49:59.467Z,38.73
2019-05-17T13:50:59.458Z,38.31
2019-05-17T13:51:59.455Z,38.81
2019-05-17T13:52:59.445Z,38.71
2019-05-17T13:53:59.425Z,38.71
2019-05-17T13:54:59.420Z,38.41
2019-05-17T13:55:59.403Z,38.91
2019-05-17T13:56:59.398Z,38.91
2019-05-17T13:57:59.392Z,39.31
2019-05-17T13:58:59.372Z,39.31
2019-05-17T13:59:59.362Z,39.11
2019-05-17T14:00:59.349Z,39.11
2019-05-17T14:01:59.349Z,39.01
2019-05-17T14:02:59.335Z,39.90
2019-05-17T14:03:59.321Z,39.20
2019-05-17T14:04:59.306Z,39.60
2019-05-17T14:05:59.296Z,39.92
2019-05-17T14:06:59.290Z,39.33
2019-05-17T14:07:59.274Z,39.05
2019-05-17T14:08:59.263Z,38.73
2019-05-17T14:09:59.254Z,38.83
2019-05-17T14:11:00.472Z,38.63
2019-05-17T14:11:59.234Z,39.12
2019-05-17T14:12:59.228Z,39.72
2019-05-17T14:13:59.219Z,39.60
2019-05-17T14:14:59.214Z,39.52